Aeroporto :
LOGIN :

Iscrizione | Disclaimer

   EN    FR    IT 

 










Sommario :    VFR   VFR Marginale   IFR   IFR Intensivo   IFR Molto Intensivo
Visibilità : 
Base nubi : 
>= 8 km
>= 3000ft
5 / 8 km
1000 / 3000 ft
1500m / 5 km
500 / 1000 ft
800 / 1500m
200 / 500 ft
< 800m
< 200 ft
Simboli :   Temporali  Nebbia  Neve Forte  Precipitazioni Forti  Vento > 20 kt
SIGMETs :   Varie  Temporali  Ghiacco  Turbolenza  Onda orograficha  Ceneri Vulcaniche






- Altitudine del aeroporto : 1959 ft
- Codice IATA : HOQ


EDQM - Hof Plauen

ULTIMO METAR :
  • 200750Z 36001KT 7000 OVC026 M00/M01 Q1043

METARs OBSOLETI :
  • 200720Z 36002KT 6000 OVC027 M00/M01 Q1043
  • 200650Z 35001KT 6000 OVC028 M00/M00 Q1043
  • 200620Z 35004KT 4800 BR BKN008 OVC028 M00/M00 Q1042
  • 200550Z 35005KT 4800 BR BKN007 OVC029 00/M00 Q1042
  • 200520Z 34005KT 310V010 6000 FEW005 SCT012 OVC029 00/M00 Q1042

TAF TAF EDQM
Valido dal 20 a 07 ore il 20 a 15 ore UTC


200622Z 2007/2015 VRB03KT 6000 SCT008 BKN025
TEMPO 2007/2009 3500 BR BKN008
TEMPO 2009/2013 BKN014



MetMap, La meteo Aeronautica in un colpo d'occhio ! - Copyright ORBIFLY Dicembre 2007 - Disclaimer

ORBIFLY MET'MAP TEAM :

Programmazione e sviluppo : Alexandra Zaïnal
Concezione : Baudouin d'Aumeries
Aiuto per la programmazione : Marc-Olivier Méhu
Supporto tecnico e logistico : Manuel Goepfert
Aiuto per la traduzione : Arnaldo La Scala

Contatto : metmap@orbifly.com




FONTI E CREDITI :

   NOAA